Time;durP1;ratioP1;P1;durP2;ratioP2;P2;SDS_P1;SDS_P2;PMS_P1;PMS_P2;Temp;Humidity;BMP_temperature;BMP_pressure;BME280_temperature;BME280_humidity;BME280_pressure;Samples;Min_cycle;Max_cycle;Signal;HPM_P1;HPM_P2
2021/01/08 00:00:49;;;;;;;14.33;7.67;;;0.40;99.90;;;;;;6126775;23;19986;-96
2021/01/08 00:03:18;;;;;;;15.07;8.13;;;0.40;99.90;;;;;;6144626;23;20009;-93
2021/01/08 00:05:44;;;;;;;14.43;7.60;;;0.50;99.90;;;;;;6157023;23;19990;-96
2021/01/08 00:08:17;;;;;;;15.20;8.13;;;0.40;99.90;;;;;;6157311;23;19989;-96
2021/01/08 00:10:43;;;;;;;15.93;8.23;;;0.50;99.90;;;;;;6156655;23;19989;-96
2021/01/08 00:13:13;;;;;;;14.00;8.10;;;0.50;99.90;;;;;;6156920;23;20024;-95
2021/01/08 00:15:42;;;;;;;15.03;8.57;;;0.50;99.90;;;;;;6156911;23;20008;-96
2021/01/08 00:18:08;;;;;;;15.97;8.77;;;0.50;99.90;;;;;;6156372;23;19990;-96
2021/01/08 00:20:35;;;;;;;13.43;7.50;;;0.50;99.90;;;;;;6156285;23;20012;-95
2021/01/08 00:23:01;;;;;;;14.50;7.73;;;0.40;99.90;;;;;;6156777;23;19985;-96
2021/01/08 00:25:27;;;;;;;13.57;7.93;;;0.50;99.90;;;;;;6156259;23;19993;-96
2021/01/08 00:27:53;;;;;;;15.37;8.03;;;0.50;99.90;;;;;;6156074;23;20017;-96
2021/01/08 00:30:19;;;;;;;14.30;8.07;;;0.40;99.90;;;;;;6156123;23;19997;-95
2021/01/08 00:32:45;;;;;;;15.43;7.90;;;0.50;99.90;;;;;;6156755;23;20020;-96
2021/01/08 00:35:11;;;;;;;15.47;8.23;;;0.50;99.90;;;;;;6156890;23;19989;-96
2021/01/08 00:37:37;;;;;;;15.37;8.33;;;0.40;99.90;;;;;;6156849;23;20036;-96
2021/01/08 00:40:03;;;;;;;16.10;8.93;;;0.50;99.90;;;;;;6157482;23;19996;-96
2021/01/08 00:42:29;;;;;;;15.67;8.30;;;0.50;99.90;;;;;;6158513;23;19996;-96
2021/01/08 00:44:54;;;;;;;15.80;8.17;;;0.40;99.90;;;;;;6158121;23;19986;-96
2021/01/08 00:47:20;;;;;;;16.23;8.07;;;0.50;99.90;;;;;;6155557;23;19989;-96
2021/01/08 00:49:50;;;;;;;14.57;8.23;;;0.50;99.90;;;;;;6157498;23;20016;-95
2021/01/08 00:52:16;;;;;;;16.90;8.77;;;0.60;99.90;;;;;;6156329;23;19989;-95
2021/01/08 00:54:44;;;;;;;14.27;8.17;;;0.60;99.90;;;;;;6161271;23;20005;-96
2021/01/08 00:57:10;;;;;;;13.80;8.23;;;0.50;99.90;;;;;;6180254;23;20017;-96
2021/01/08 00:59:36;;;;;;;16.60;8.67;;;0.50;99.90;;;;;;6180648;23;19985;-95
2021/01/08 01:02:08;;;;;;;14.83;8.40;;;0.50;99.90;;;;;;6180956;23;20040;-96
2021/01/08 01:04:34;;;;;;;14.33;8.13;;;0.50;99.90;;;;;;6181168;23;19981;-96
2021/01/08 01:07:03;;;;;;;13.07;7.07;;;0.40;99.90;;;;;;6181083;23;20013;-96
2021/01/08 01:09:29;;;;;;;15.13;8.83;;;0.40;99.90;;;;;;6181062;23;20140;-96
2021/01/08 01:11:55;;;;;;;16.60;8.20;;;0.40;99.90;;;;;;6180762;23;19986;-96
2021/01/08 01:14:25;;;;;;;17.70;8.73;;;0.40;99.90;;;;;;6181550;23;19985;-96
2021/01/08 01:16:51;;;;;;;16.57;8.33;;;0.40;99.90;;;;;;6181443;23;19981;-95
2021/01/08 01:19:17;;;;;;;15.20;8.00;;;0.40;99.90;;;;;;6181160;23;19986;-96
2021/01/08 01:21:42;;;;;;;14.30;7.70;;;0.40;99.90;;;;;;6180727;23;19986;-95
2021/01/08 01:24:08;;;;;;;15.63;7.83;;;0.40;99.90;;;;;;6181086;23;20005;-96
2021/01/08 01:26:34;;;;;;;16.70;9.03;;;0.40;99.90;;;;;;6177274;23;20061;-95
2021/01/08 01:29:00;;;;;;;15.47;8.30;;;0.40;99.90;;;;;;6179001;23;20000;-96
2021/01/08 01:31:25;;;;;;;16.77;8.80;;;0.50;99.90;;;;;;6179234;23;20004;-96
2021/01/08 01:33:51;;;;;;;16.47;8.57;;;0.50;99.90;;;;;;6179016;23;19989;-96
2021/01/08 01:36:17;;;;;;;13.33;7.77;;;0.50;99.90;;;;;;6180034;23;19989;-96
2021/01/08 01:38:43;;;;;;;13.90;7.70;;;0.50;99.90;;;;;;6180253;23;19994;-96
2021/01/08 01:41:08;;;;;;;14.37;6.93;;;0.50;99.90;;;;;;6179696;23;20009;-95
2021/01/08 01:43:38;;;;;;;11.80;6.30;;;0.40;99.90;;;;;;6180330;23;19992;-96
2021/01/08 01:46:04;;;;;;;12.60;6.70;;;0.30;99.90;;;;;;6177946;23;19985;-96
2021/01/08 01:48:30;;;;;;;12.77;6.67;;;0.40;99.90;;;;;;6179639;23;20029;-96
2021/01/08 01:50:56;;;;;;;11.40;5.97;;;0.30;99.90;;;;;;6180223;23;20045;-95
2021/01/08 01:53:23;;;;;;;13.30;7.27;;;0.20;99.90;;;;;;6180170;23;19997;-96
2021/01/08 01:55:50;;;;;;;13.17;6.80;;;0.20;99.90;;;;;;6179810;23;19997;-96
2021/01/08 01:58:17;;;;;;;11.33;6.27;;;0.20;99.90;;;;;;6180124;23;19989;-96
2021/01/08 02:00:43;;;;;;;11.13;5.93;;;0.20;99.90;;;;;;6180261;23;19985;-95
2021/01/08 02:03:17;;;;;;;11.83;5.93;;;0.20;99.90;;;;;;6180052;23;20035;-96
2021/01/08 02:05:45;;;;;;;11.13;5.93;;;0.10;99.90;;;;;;6180365;23;20047;-96
2021/01/08 02:08:20;;;;;;;11.97;5.83;;;0.10;99.90;;;;;;6179937;23;20016;-96
2021/01/08 02:11:04;;;;;;;13.43;6.87;;;0.00;99.90;;;;;;6180000;23;19989;-96
2021/01/08 02:13:41;;;;;;;12.07;6.10;;;0.00;99.90;;;;;;6179785;23;19997;-96
2021/01/08 02:16:07;;;;;;;14.77;5.60;;;0.00;99.90;;;;;;6179872;23;20044;-96
2021/01/08 02:18:34;;;;;;;10.67;5.90;;;0.00;99.90;;;;;;6179063;23;19996;-96
2021/01/08 02:21:05;;;;;;;11.60;6.60;;;-0.10;99.90;;;;;;6178502;23;19998;-95
2021/01/08 02:23:57;;;;;;;14.67;6.97;;;-0.10;99.90;;;;;;6179935;23;19985;-96
2021/01/08 02:26:24;;;;;;;15.43;8.07;;;-0.20;99.90;;;;;;6179854;23;19981;-96
2021/01/08 02:28:50;;;;;;;16.10;8.53;;;-0.20;99.90;;;;;;6179792;23;19996;-96
2021/01/08 02:31:17;;;;;;;16.27;9.00;;;-0.20;99.90;;;;;;6179575;23;19990;-95
2021/01/08 02:33:43;;;;;;;18.87;10.13;;;-0.20;99.90;;;;;;6178668;23;20002;-96
2021/01/08 02:36:09;;;;;;;20.37;10.47;;;-0.30;99.90;;;;;;6179358;23;20013;-95
2021/01/08 02:38:36;;;;;;;18.20;10.40;;;-0.30;99.90;;;;;;6180077;23;19990;-95
2021/01/08 02:41:06;;;;;;;19.17;11.10;;;-0.20;99.90;;;;;;6179625;23;19993;-96
2021/01/08 02:43:34;;;;;;;18.37;10.30;;;-0.30;99.90;;;;;;6179514;23;20041;-96
2021/01/08 02:46:02;;;;;;;22.20;10.73;;;-0.10;99.90;;;;;;6177149;23;19994;-95
2021/01/08 02:48:28;;;;;;;22.40;11.87;;;-0.20;99.90;;;;;;6179660;23;20203;-96
2021/01/08 02:50:53;;;;;;;23.97;11.80;;;-0.20;99.90;;;;;;6178955;23;19990;-96
2021/01/08 02:53:23;;;;;;;20.30;10.97;;;-0.20;99.90;;;;;;6179444;23;19998;-96
2021/01/08 02:55:56;;;;;;;21.63;10.97;;;-0.20;99.90;;;;;;6179318;23;19997;-96
2021/01/08 02:58:22;;;;;;;23.10;12.40;;;-0.20;99.90;;;;;;6179515;23;20009;-96
2021/01/08 03:00:51;;;;;;;21.20;11.17;;;-0.30;99.90;;;;;;6181022;23;20188;-96
2021/01/08 03:03:17;;;;;;;22.27;11.40;;;-0.30;99.90;;;;;;6181600;23;19985;-95
2021/01/08 03:05:43;;;;;;;22.20;11.07;;;-0.30;99.90;;;;;;6182000;23;19986;-94
2021/01/08 03:08:09;;;;;;;24.40;12.17;;;-0.30;99.90;;;;;;6181381;23;19996;-96
2021/01/08 03:10:34;;;;;;;21.57;11.43;;;-0.30;99.90;;;;;;6181432;23;20001;-96
2021/01/08 03:13:06;;;;;;;21.97;11.33;;;-0.30;99.90;;;;;;6181239;23;19989;-95
2021/01/08 03:15:32;;;;;;;21.10;11.43;;;-0.30;99.90;;;;;;6181460;23;19989;-96
2021/01/08 03:17:57;;;;;;;22.50;12.23;;;-0.30;99.90;;;;;;6181261;23;20009;-95
2021/01/08 03:20:24;;;;;;;24.33;11.27;;;-0.30;99.90;;;;;;6180838;23;19989;-96
2021/01/08 03:22:50;;;;;;;22.33;11.57;;;-0.20;99.90;;;;;;6181223;23;19993;-96
2021/01/08 03:25:16;;;;;;;23.47;12.20;;;-0.20;99.90;;;;;;6181483;23;20028;-95
2021/01/08 03:27:42;;;;;;;25.50;12.27;;;-0.20;99.90;;;;;;6181353;23;19989;-96
2021/01/08 03:30:09;;;;;;;23.53;11.53;;;-0.30;99.90;;;;;;6181478;23;20001;-96
2021/01/08 03:32:35;;;;;;;22.13;11.77;;;-0.20;99.90;;;;;;6180755;23;20225;-96
2021/01/08 03:35:01;;;;;;;23.87;12.10;;;-0.20;99.90;;;;;;6181176;23;19990;-96
2021/01/08 03:37:27;;;;;;;24.63;12.40;;;-0.20;99.90;;;;;;6181256;23;20004;-96
2021/01/08 03:39:53;;;;;;;19.93;11.00;;;-0.20;99.90;;;;;;6181057;23;19986;-95
2021/01/08 03:42:18;;;;;;;21.77;10.97;;;-0.20;99.90;;;;;;6181025;23;19986;-96
2021/01/08 03:44:44;;;;;;;20.43;10.90;;;-0.20;99.90;;;;;;6181525;23;19996;-95
2021/01/08 03:47:10;;;;;;;23.60;11.27;;;-0.20;99.90;;;;;;6181212;23;19994;-96
2021/01/08 03:49:39;;;;;;;21.93;11.13;;;-0.20;99.90;;;;;;6181025;23;19985;-96
2021/01/08 03:52:09;;;;;;;22.67;11.23;;;-0.30;99.90;;;;;;6180717;23;19992;-96
2021/01/08 03:54:36;;;;;;;20.77;11.00;;;-0.20;99.90;;;;;;6181426;23;19993;-94
2021/01/08 03:57:02;;;;;;;19.10;11.73;;;-0.20;99.90;;;;;;6180850;23;19985;-95
2021/01/08 03:59:28;;;;;;;22.00;11.70;;;-0.20;99.90;;;;;;6181116;23;19985;-96
2021/01/08 04:01:54;;;;;;;21.47;11.27;;;-0.20;99.90;;;;;;6180998;23;19997;-95
2021/01/08 04:04:21;;;;;;;25.77;11.27;;;-0.10;99.90;;;;;;6180660;23;19993;-95
2021/01/08 04:06:46;;;;;;;20.73;10.70;;;-0.10;99.90;;;;;;6180634;23;20013;-96
2021/01/08 04:09:12;;;;;;;19.20;10.37;;;-0.10;99.90;;;;;;6180957;23;19989;-96
2021/01/08 04:11:38;;;;;;;18.60;9.83;;;-0.10;99.90;;;;;;6180538;23;20014;-96
2021/01/08 04:14:04;;;;;;;20.37;10.33;;;-0.20;99.90;;;;;;6180593;23;19989;-96
2021/01/08 04:16:34;;;;;;;21.27;10.47;;;-0.10;99.90;;;;;;6180952;23;19998;-96
2021/01/08 04:19:00;;;;;;;20.47;11.10;;;-0.10;99.90;;;;;;6180720;23;19998;-96
2021/01/08 04:21:26;;;;;;;21.73;10.50;;;-0.10;99.90;;;;;;6179996;23;19986;-95
2021/01/08 04:23:51;;;;;;;18.90;10.60;;;0.00;99.90;;;;;;6180786;23;20038;-96
2021/01/08 04:26:17;;;;;;;20.13;10.40;;;0.00;99.90;;;;;;6180874;23;19993;-95
2021/01/08 04:28:43;;;;;;;19.47;9.73;;;0.00;99.90;;;;;;6180971;23;20016;-94
2021/01/08 04:31:09;;;;;;;16.73;9.03;;;0.00;99.90;;;;;;6181013;23;19989;-96
2021/01/08 04:33:35;;;;;;;17.80;9.07;;;-0.10;99.90;;;;;;6180945;23;19990;-96
2021/01/08 04:36:00;;;;;;;18.27;9.57;;;-0.10;99.90;;;;;;6180700;23;20013;-96
2021/01/08 04:38:26;;;;;;;17.83;9.63;;;-0.10;99.90;;;;;;6180909;23;20020;-95
2021/01/08 04:40:52;;;;;;;18.73;9.60;;;-0.20;99.90;;;;;;6180719;23;20017;-96
2021/01/08 04:43:18;;;;;;;18.30;9.67;;;-0.20;99.90;;;;;;6181025;23;20001;-94
2021/01/08 04:45:44;;;;;;;18.50;9.10;;;-0.30;99.90;;;;;;6180993;23;19989;-95
2021/01/08 04:48:11;;;;;;;18.20;9.73;;;-0.20;99.90;;;;;;6180914;23;19997;-95
2021/01/08 04:50:37;;;;;;;17.87;9.67;;;-0.30;99.90;;;;;;6180934;23;19990;-95
2021/01/08 04:53:03;;;;;;;17.40;9.33;;;-0.30;99.90;;;;;;6180649;23;19989;-95
2021/01/08 04:55:29;;;;;;;19.40;9.07;;;-0.30;99.90;;;;;;6180364;23;20005;-95
2021/01/08 04:57:58;;;;;;;21.10;9.50;;;-0.30;99.90;;;;;;6180166;23;20017;-95
2021/01/08 05:00:24;;;;;;;20.77;9.40;;;-0.30;99.90;;;;;;6180498;23;19986;-94
2021/01/08 05:02:51;;;;;;;19.53;10.40;;;-0.30;99.90;;;;;;6180803;23;19993;-95
2021/01/08 05:05:18;;;;;;;19.20;10.00;;;-0.20;99.90;;;;;;6180221;23;19986;-94
2021/01/08 05:07:44;;;;;;;19.00;8.60;;;-0.20;99.90;;;;;;6180636;23;20009;-96
2021/01/08 05:10:11;;;;;;;18.23;9.70;;;-0.20;99.90;;;;;;6180127;23;19993;-96
2021/01/08 05:12:41;;;;;;;17.40;8.97;;;-0.20;99.90;;;;;;6180658;23;19989;-95
2021/01/08 05:15:14;;;;;;;16.53;7.87;;;-0.30;99.90;;;;;;6180443;23;20013;-94
2021/01/08 05:17:43;;;;;;;17.83;8.50;;;-0.30;99.90;;;;;;6180407;23;19998;-96
2021/01/08 05:20:10;;;;;;;19.87;9.03;;;-0.30;99.90;;;;;;6179875;23;19986;-95
2021/01/08 05:22:38;;;;;;;16.33;8.30;;;-0.30;99.90;;;;;;6180410;23;20037;-96
2021/01/08 05:25:07;;;;;;;17.60;8.30;;;-0.30;99.90;;;;;;6180580;23;20136;-94
2021/01/08 05:27:33;;;;;;;17.50;8.70;;;-0.40;99.90;;;;;;6180455;23;20012;-95
2021/01/08 05:30:14;;;;;;;14.97;7.60;;;-0.40;99.90;;;;;;6180853;23;19989;-93
2021/01/08 05:32:40;;;;;;;16.33;8.27;;;-0.40;99.90;;;;;;6180437;23;19997;-96
2021/01/08 05:35:07;;;;;;;18.07;8.97;;;-0.40;99.90;;;;;;6180921;23;20020;-95
2021/01/08 05:37:33;;;;;;;15.00;7.90;;;-0.40;99.90;;;;;;6180414;23;19989;-95
2021/01/08 05:40:04;;;;;;;15.17;7.67;;;-0.40;99.90;;;;;;6180558;23;20073;-95
2021/01/08 05:42:30;;;;;;;15.83;7.60;;;-0.50;99.90;;;;;;6180003;23;20004;-96
2021/01/08 05:44:56;;;;;;;15.70;8.50;;;-0.50;99.90;;;;;;6180638;23;19993;-95
2021/01/08 05:47:22;;;;;;;15.97;7.80;;;-0.40;99.90;;;;;;6180339;23;19989;-96
2021/01/08 05:49:49;;;;;;;17.17;8.97;;;-0.50;99.90;;;;;;6180225;23;20012;-95
2021/01/08 05:52:16;;;;;;;14.07;7.87;;;-0.50;99.90;;;;;;6180497;23;19985;-95
2021/01/08 05:54:43;;;;;;;14.73;7.47;;;-0.50;99.90;;;;;;6180707;23;20016;-95
2021/01/08 05:57:10;;;;;;;14.57;7.37;;;-0.40;99.90;;;;;;6180658;23;19990;-95
2021/01/08 05:59:38;;;;;;;17.10;7.73;;;-0.40;99.90;;;;;;6180136;23;19982;-95
2021/01/08 06:02:05;;;;;;;15.10;8.17;;;-0.40;99.90;;;;;;6180182;23;19993;-94
2021/01/08 06:04:40;;;;;;;15.93;8.00;;;-0.40;99.90;;;;;;6180624;23;19986;-95
2021/01/08 06:07:16;;;;;;;13.23;6.80;;;-0.40;99.90;;;;;;6180247;23;20012;-95
2021/01/08 06:09:50;;;;;;;15.27;7.83;;;-0.40;99.90;;;;;;6179339;23;19996;-95
2021/01/08 06:12:17;;;;;;;15.53;7.73;;;-0.40;99.90;;;;;;6179169;23;19985;-95
2021/01/08 06:14:44;;;;;;;12.50;7.27;;;-0.40;99.90;;;;;;6179326;23;19986;-95
2021/01/08 06:17:17;;;;;;;14.80;6.97;;;-0.40;99.90;;;;;;6178647;23;19993;-95
2021/01/08 06:19:44;;;;;;;15.67;7.03;;;-0.40;99.90;;;;;;6179281;23;19993;-96
2021/01/08 06:22:10;;;;;;;15.00;7.17;;;-0.30;99.90;;;;;;6178858;23;20012;-95
2021/01/08 06:24:36;;;;;;;13.40;6.77;;;-0.40;99.90;;;;;;6179102;23;20001;-96
2021/01/08 06:27:03;;;;;;;13.70;6.97;;;-0.40;99.90;;;;;;6178747;23;20008;-96
2021/01/08 06:29:33;;;;;;;15.40;7.77;;;-0.40;99.90;;;;;;6179522;23;19985;-95
2021/01/08 06:32:09;;;;;;;13.83;6.70;;;-0.40;99.90;;;;;;6178907;23;19996;-96
2021/01/08 06:34:47;;;;;;;13.53;7.10;;;-0.40;99.90;;;;;;6179269;23;19986;-96
2021/01/08 06:37:14;;;;;;;13.47;6.87;;;-0.40;99.90;;;;;;6178796;23;19985;-96
2021/01/08 06:39:45;;;;;;;13.67;7.03;;;-0.40;99.90;;;;;;6179331;23;20049;-96
2021/01/08 06:42:29;;;;;;;12.20;6.70;;;-0.30;99.90;;;;;;6178619;23;20032;-95
2021/01/08 06:44:56;;;;;;;12.93;6.40;;;-0.30;99.90;;;;;;6179325;23;19992;-95
2021/01/08 06:47:22;;;;;;;15.23;7.47;;;-0.30;99.90;;;;;;6179158;23;19989;-95
2021/01/08 06:49:52;;;;;;;13.37;6.70;;;-0.30;99.90;;;;;;6179170;23;19995;-96
2021/01/08 06:52:20;;;;;;;13.73;7.17;;;-0.30;99.90;;;;;;6178325;23;20073;-95
2021/01/08 06:54:54;;;;;;;12.93;6.50;;;-0.30;99.90;;;;;;6179317;23;19997;-96
2021/01/08 06:57:24;;;;;;;14.77;7.00;;;-0.30;99.90;;;;;;6179357;23;20021;-95
2021/01/08 07:00:04;;;;;;;16.37;7.97;;;-0.20;99.90;;;;;;6178943;23;19994;-96
2021/01/08 07:02:32;;;;;;;15.27;7.17;;;-0.30;99.90;;;;;;6179152;23;19997;-96
2021/01/08 07:05:00;;;;;;;14.53;6.73;;;-0.20;99.90;;;;;;6179574;23;19997;-96
2021/01/08 07:08:01;;;;;;;15.13;6.77;;;-0.20;99.90;;;;;;6181400;23;20053;-95
2021/01/08 07:15:06;;;;;;;;;;;;;;;;;;;;;
2021/01/08 07:18:16;;;;;;;;;;;;;;;;;;;;;
2021/01/08 07:24:19;;;;;;;16.43;7.23;;;-0.20;99.90;;;;;;6172170;23;19992;-96
2021/01/08 07:33:57;;;;;;;10.48;5.60;;;-0.20;99.90;;;;;;6183218;23;20016;-96
2021/01/08 07:36:28;;;;;;;13.68;6.13;;;-0.10;99.90;;;;;;6157255;23;19989;-96
2021/01/08 07:38:54;;;;;;;12.10;6.57;;;-0.20;99.90;;;;;;6178069;23;20016;-94
2021/01/08 07:41:40;;;;;;;14.27;6.90;;;-0.10;99.90;;;;;;6177676;23;19993;-94
2021/01/08 07:44:30;;;;;;;13.10;6.97;;;-0.10;99.90;;;;;;6178694;23;19982;-95
2021/01/08 07:46:56;;;;;;;13.13;6.73;;;0.00;99.90;;;;;;6162160;23;20045;-95
2021/01/08 07:49:29;;;;;;;11.67;6.17;;;0.00;99.90;;;;;;6180182;23;20000;-95
2021/01/08 07:51:55;;;;;;;12.73;6.43;;;0.00;99.90;;;;;;6180341;23;19990;-94
2021/01/08 07:54:51;;;;;;;12.50;5.67;;;0.00;99.90;;;;;;6180148;23;19993;-95
2021/01/08 07:57:16;;;;;;;12.60;6.93;;;0.00;99.90;;;;;;6180310;23;19993;-94
2021/01/08 07:59:42;;;;;;;13.13;6.50;;;0.00;99.90;;;;;;6180154;23;20036;-94
2021/01/08 08:02:08;;;;;;;13.77;6.53;;;0.00;99.90;;;;;;6179445;23;19994;-94
2021/01/08 08:04:36;;;;;;;11.43;6.37;;;0.10;99.90;;;;;;6180211;23;20244;-94
2021/01/08 08:07:03;;;;;;;11.53;6.07;;;0.10;99.90;;;;;;6180145;23;20005;-93
2021/01/08 08:09:29;;;;;;;15.17;7.20;;;0.10;99.90;;;;;;6180089;23;19985;-94
2021/01/08 08:11:55;;;;;;;12.40;5.80;;;0.10;99.90;;;;;;6179263;23;20020;-96
2021/01/08 08:14:24;;;;;;;9.53;5.23;;;0.10;99.90;;;;;;6179840;23;19996;-94
2021/01/08 08:16:50;;;;;;;10.87;5.50;;;0.20;99.90;;;;;;6178919;23;19993;-96
2021/01/08 08:19:16;;;;;;;12.00;6.20;;;0.20;99.90;;;;;;6180030;23;19996;-95
2021/01/08 08:21:47;;;;;;;11.57;5.67;;;0.10;99.90;;;;;;6179203;23;20009;-94
2021/01/08 08:24:18;;;;;;;10.90;5.93;;;0.20;99.90;;;;;;6179904;23;20005;-94
2021/01/08 08:26:45;;;;;;;12.53;6.33;;;0.20;99.90;;;;;;6179289;23;20017;-94
2021/01/08 08:52:29;;;;;;;11.93;6.07;;;0.30;99.90;;;;;;6147581;23;20070;-95
2021/01/08 08:54:55;;;;;;;10.60;5.57;;;0.30;99.90;;;;;;6123788;23;20002;-95
2021/01/08 08:57:22;;;;;;;9.60;5.60;;;0.30;99.90;;;;;;6119339;23;19997;-94
2021/01/08 08:59:54;;;;;;;9.67;5.27;;;0.30;99.90;;;;;;6148563;23;20017;-93
2021/01/08 09:02:28;;;;;;;19.57;5.53;;;0.30;99.90;;;;;;6123420;23;20070;-94
2021/01/08 09:05:03;;;;;;;12.90;5.80;;;0.30;99.90;;;;;;6123366;23;20002;-94
2021/01/08 09:08:13;;;;;;;11.43;6.00;;;0.30;99.90;;;;;;6122171;23;20005;-92
2021/01/08 09:11:03;;;;;;;12.83;6.47;;;0.40;99.90;;;;;;5979311;23;19992;-95
2021/01/08 09:13:59;;;;;;;11.73;6.07;;;0.40;99.90;;;;;;5979941;23;20056;-95
2021/01/08 09:17:02;;;;;;;10.37;5.33;;;0.40;99.90;;;;;;6103080;23;19994;-95
2021/01/08 09:19:51;;;;;;;10.70;5.83;;;0.40;99.90;;;;;;6124026;23;20002;-94
2021/01/08 09:22:17;;;;;;;9.30;4.97;;;0.50;99.90;;;;;;6123088;23;20172;-94
2021/01/08 09:24:48;;;;;;;13.60;6.20;;;0.50;99.90;;;;;;6123854;23;20069;-95
2021/01/08 09:27:28;;;;;;;9.83;5.27;;;0.60;99.90;;;;;;6147377;23;20024;-95
2021/01/08 09:30:05;;;;;;;10.13;5.40;;;0.60;99.90;;;;;;6099667;23;19994;-95
2021/01/08 09:32:32;;;;;;;10.90;6.43;;;0.60;99.90;;;;;;6124169;23;19994;-93
2021/01/08 09:47:57;;;;;;;11.63;4.67;;;0.90;99.90;;;;;;6107130;23;20006;-95
2021/01/08 09:50:29;;;;;;;11.07;4.87;;;0.90;99.90;;;;;;6124413;23;19990;-93
2021/01/08 09:55:33;;;;;;;9.27;4.83;;;0.90;99.90;;;;;;6119291;23;20010;-94
2021/01/08 09:58:03;;;;;;;9.30;4.50;;;0.80;99.90;;;;;;6092419;23;20038;-95
2021/01/08 10:00:35;;;;;;;9.93;4.80;;;0.80;99.90;;;;;;6094263;23;20059;-94
2021/01/08 10:05:37;;;;;;;13.30;4.47;;;0.80;99.90;;;;;;6086449;23;20201;-96
2021/01/08 10:08:04;;;;;;;7.87;4.40;;;0.80;99.90;;;;;;6124939;23;19990;-96
2021/01/08 10:10:30;;;;;;;9.40;4.17;;;0.80;99.90;;;;;;6125900;23;19990;-95
2021/01/08 10:12:59;;;;;;;7.10;3.57;;;0.80;99.90;;;;;;6137872;23;19989;-96
2021/01/08 10:15:40;;;;;;;6.00;3.13;;;0.90;99.90;;;;;;6155046;23;19985;-96
2021/01/08 10:18:24;;;;;;;7.40;3.20;;;1.00;99.90;;;;;;6155051;23;20045;-96
2021/01/08 10:20:54;;;;;;;6.20;2.67;;;1.00;99.90;;;;;;6154738;23;19985;-96
2021/01/08 10:23:24;;;;;;;5.90;2.60;;;1.10;99.90;;;;;;6153512;23;19982;-95
2021/01/08 10:25:51;;;;;;;5.47;2.63;;;1.10;99.90;;;;;;6153823;23;20043;-95
2021/01/08 10:28:25;;;;;;;4.63;2.43;;;1.10;99.90;;;;;;6153533;23;20008;-95
2021/01/08 10:52:21;;;;;;;4.47;2.50;;;1.60;99.90;;;;;;6130282;23;20205;-95
2021/01/08 10:54:48;;;;;;;7.17;2.60;;;1.60;99.90;;;;;;6175881;23;20005;-94
2021/01/08 11:15:22;;;;;;;6.67;2.53;;;1.90;99.90;;;;;;6115415;23;20035;-93
2021/01/08 11:17:48;;;;;;;4.90;2.40;;;2.00;99.90;;;;;;6088014;23;20026;-93
2021/01/08 11:20:14;;;;;;;4.93;2.63;;;2.00;99.90;;;;;;6088399;23;20042;-94
2021/01/08 11:22:40;;;;;;;6.00;2.70;;;2.00;99.90;;;;;;6100953;23;20360;-94
2021/01/08 11:25:07;;;;;;;5.87;2.90;;;2.00;99.90;;;;;;6119531;23;20038;-95
2021/01/08 11:27:33;;;;;;;5.63;2.83;;;2.00;99.90;;;;;;6118526;23;20042;-92
2021/01/08 11:29:59;;;;;;;5.87;3.07;;;1.90;99.90;;;;;;6121019;23;20133;-93
2021/01/08 11:32:30;;;;;;;5.93;2.97;;;1.90;99.90;;;;;;6118783;23;19998;-94
2021/01/08 11:34:56;;;;;;;5.10;2.88;;;1.90;99.90;;;;;;6092316;23;20017;-95
2021/01/08 11:37:22;;;;;;;5.83;3.00;;;1.90;99.90;;;;;;6146737;23;19998;-93
2021/01/08 11:39:48;;;;;;;7.20;3.40;;;1.80;99.90;;;;;;6146732;23;20076;-95
2021/01/08 11:42:15;;;;;;;6.77;3.00;;;1.90;99.90;;;;;;6149753;23;20017;-94
2021/01/08 11:44:41;;;;;;;6.00;2.83;;;2.00;99.90;;;;;;6177655;23;19993;-95
2021/01/08 11:47:08;;;;;;;5.57;2.83;;;2.10;99.90;;;;;;6176184;23;20019;-95
2021/01/08 11:52:09;;;;;;;8.43;3.40;;;2.20;99.90;;;;;;6116220;23;20084;-94
2021/01/08 11:54:38;;;;;;;5.73;2.57;;;2.30;99.90;;;;;;6152771;23;20009;-95
2021/01/08 11:57:05;;;;;;;4.93;2.60;;;2.30;99.90;;;;;;6153508;23;19994;-95
2021/01/08 12:02:15;;;;;;;5.53;2.80;;;2.20;99.90;;;;;;6124659;23;20074;-94
2021/01/08 12:04:40;;;;;;;6.67;2.90;;;2.20;99.90;;;;;;6119072;23;20034;-94
2021/01/08 12:07:06;;;;;;;5.50;2.50;;;2.20;99.90;;;;;;6124928;23;20002;-94
2021/01/08 12:09:33;;;;;;;7.97;2.90;;;2.20;99.90;;;;;;6125140;23;20037;-94
2021/01/08 12:12:00;;;;;;;6.10;3.13;;;2.00;99.90;;;;;;6125819;23;19994;-94
2021/01/08 12:14:26;;;;;;;5.87;2.70;;;2.00;99.90;;;;;;6153999;23;20014;-93
2021/01/08 12:16:52;;;;;;;6.20;2.63;;;2.00;99.90;;;;;;6154224;23;20006;-94
2021/01/08 12:19:18;;;;;;;6.33;3.20;;;2.00;99.90;;;;;;6155169;23;20070;-95
2021/01/08 12:21:46;;;;;;;5.53;2.50;;;1.90;99.90;;;;;;6154890;23;19997;-94
2021/01/08 12:24:12;;;;;;;5.57;2.67;;;1.90;99.90;;;;;;6140842;23;20006;-96
2021/01/08 12:26:38;;;;;;;5.73;2.83;;;2.00;99.90;;;;;;6148763;23;20081;-95
2021/01/08 12:29:05;;;;;;;6.77;3.23;;;2.00;99.90;;;;;;6149427;23;19994;-96
2021/01/08 12:31:31;;;;;;;7.23;3.17;;;1.90;99.90;;;;;;6135437;23;20014;-96
2021/01/08 12:33:58;;;;;;;5.23;2.60;;;1.90;99.90;;;;;;6153723;23;20028;-95
2021/01/08 12:36:48;;;;;;;7.00;3.43;;;1.80;99.90;;;;;;6181647;23;19985;-96
2021/01/08 12:41:49;;;;;;;6.83;3.20;;;1.80;99.90;;;;;;6065321;23;20017;-96
2021/01/08 12:44:15;;;;;;;7.03;3.47;;;1.70;99.90;;;;;;6156104;23;19985;-96
2021/01/08 13:07:55;;;;;;;6.97;3.43;;;1.70;99.90;;;;;;6142264;23;20016;-95
2021/01/08 13:10:24;;;;;;;9.83;3.30;;;1.60;99.90;;;;;;6124762;23;19986;-95
2021/01/08 13:12:56;;;;;;;7.10;3.40;;;1.60;99.90;;;;;;6165261;23;19985;-95
2021/01/08 13:16:17;;;;;;;8.30;3.57;;;1.60;99.90;;;;;;6156918;23;19986;-95
2021/01/08 13:19:10;;;;;;;7.60;3.73;;;1.60;99.90;;;;;;6155363;23;19986;-96
2021/01/08 13:32:18;;;;;;;7.43;3.90;;;1.40;99.90;;;;;;6146440;23;20014;-96
2021/01/08 13:39:55;;;;;;;9.40;4.10;;;1.40;99.90;;;;;;6125238;23;20081;-91
2021/01/08 13:44:56;;;;;;;8.47;3.67;;;1.50;99.90;;;;;;6140135;23;20025;-95
2021/01/08 13:47:27;;;;;;;7.43;4.27;;;1.50;99.90;;;;;;6122163;23;20046;-94
2021/01/08 13:49:53;;;;;;;8.60;3.63;;;1.60;99.90;;;;;;6127346;23;20021;-94
2021/01/08 13:52:47;;;;;;;7.20;3.63;;;1.60;99.90;;;;;;6156524;23;19990;-96
2021/01/08 13:55:48;;;;;;;8.73;4.43;;;1.50;99.90;;;;;;6183467;23;19985;-96
2021/01/08 14:16:43;;;;;;;9.30;4.77;;;1.50;99.90;;;;;;6092188;23;20082;-96
2021/01/08 14:19:08;;;;;;;10.57;5.27;;;1.50;99.90;;;;;;6065655;23;20018;-95
2021/01/08 14:21:36;;;;;;;10.90;5.30;;;1.50;99.90;;;;;;6064815;23;19991;-95
2021/01/08 14:24:04;;;;;;;10.17;4.80;;;1.50;99.90;;;;;;6081107;23;20036;-96
2021/01/08 14:26:36;;;;;;;9.67;4.60;;;1.50;99.90;;;;;;6149099;23;20002;-95
2021/01/08 14:29:07;;;;;;;7.97;4.27;;;1.50;99.90;;;;;;6150154;23;20250;-96
2021/01/08 14:31:38;;;;;;;6.07;3.00;;;1.50;99.90;;;;;;6149674;23;20250;-95
2021/01/08 14:36:59;;;;;;;9.33;4.33;;;1.40;99.90;;;;;;6131258;23;20074;-96
2021/01/08 14:39:25;;;;;;;9.43;4.93;;;1.40;99.90;;;;;;6127798;23;20057;-95
2021/01/08 14:41:55;;;;;;;10.67;4.00;;;1.40;99.90;;;;;;6128442;23;19986;-95
2021/01/08 14:45:24;;;;;;;6.38;3.05;;;1.40;99.90;;;;;;6124823;23;20022;-96
2021/01/08 14:48:05;;;;;;;7.97;4.03;;;1.30;99.90;;;;;;5985076;24;20055;-96
2021/01/08 14:55:52;;;;;;;9.13;4.57;;;1.20;99.90;;;;;;6116941;23;20017;-96
2021/01/08 15:00:56;;;;;;;10.93;5.00;;;1.20;99.90;;;;;;6122382;23;20006;-95
2021/01/08 15:03:22;;;;;;;10.10;4.93;;;1.10;99.90;;;;;;6099499;23;20012;-95
2021/01/08 15:05:49;;;;;;;9.70;4.77;;;1.10;99.90;;;;;;6150259;23;20002;-94
2021/01/08 15:08:15;;;;;;;10.23;4.70;;;1.10;99.90;;;;;;6146713;23;19994;-94
2021/01/08 15:30:18;;;;;;;9.50;5.20;;;0.90;99.90;;;;;;6307413;22;20062;-95
2021/01/08 15:32:44;;;;;;;11.07;5.17;;;0.90;99.90;;;;;;6305465;22;20007;-94
2021/01/08 15:35:10;;;;;;;10.77;4.87;;;0.90;99.90;;;;;;6306505;22;20062;-96
2021/01/08 15:37:36;;;;;;;8.57;4.93;;;0.90;99.90;;;;;;6299229;22;20000;-95
2021/01/08 15:40:02;;;;;;;10.47;5.57;;;0.90;99.90;;;;;;6305323;22;20029;-93
2021/01/08 15:42:28;;;;;;;9.27;4.63;;;0.90;99.90;;;;;;6304909;22;20018;-93
2021/01/08 15:44:54;;;;;;;7.33;4.00;;;0.80;99.90;;;;;;6300979;22;19992;-95
2021/01/08 15:47:19;;;;;;;8.30;4.43;;;0.90;99.90;;;;;;6300070;22;20058;-93
2021/01/08 15:49:45;;;;;;;8.93;4.60;;;0.80;99.90;;;;;;6299972;22;20000;-92
2021/01/08 15:52:10;;;;;;;8.10;4.13;;;0.80;99.90;;;;;;6302917;22;20011;-93
2021/01/08 15:54:36;;;;;;;7.50;3.80;;;0.80;99.90;;;;;;6302981;22;20065;-92
2021/01/08 15:57:02;;;;;;;8.90;4.10;;;0.80;99.90;;;;;;6302238;22;20031;-93
2021/01/08 15:59:28;;;;;;;7.37;3.73;;;0.90;99.90;;;;;;6300665;22;20046;-92
2021/01/08 16:01:53;;;;;;;8.60;3.77;;;0.80;99.90;;;;;;6301052;22;20012;-93
2021/01/08 16:04:19;;;;;;;8.50;3.73;;;0.90;99.90;;;;;;6301287;22;20036;-93
2021/01/08 16:06:47;;;;;;;6.10;3.13;;;0.80;99.90;;;;;;6300073;22;20031;-93
2021/01/08 16:09:13;;;;;;;7.57;3.30;;;0.80;99.90;;;;;;6300701;22;20023;-93